createdAt,value
2022-09-23T00:01:14.702Z,5.10
2022-09-23T00:03:45.575Z,5.30
2022-09-23T00:06:19.695Z,5.00
2022-09-23T00:14:19.213Z,4.80
2022-09-23T00:16:46.254Z,4.50
2022-09-23T00:19:13.298Z,5.10
2022-09-23T00:21:40.301Z,4.93
2022-09-23T00:24:08.099Z,5.80
2022-09-23T00:26:35.172Z,5.27
2022-09-23T00:29:02.346Z,4.70
2022-09-23T00:31:29.371Z,5.43
2022-09-23T00:34:01.709Z,5.47
2022-09-23T00:36:30.392Z,4.57
2022-09-23T00:38:57.848Z,4.93
2022-09-23T00:41:25.551Z,4.87
2022-09-23T00:43:57.480Z,5.83
2022-09-23T00:46:38.999Z,4.83
2022-09-23T00:49:13.101Z,5.23
2022-09-23T00:51:49.100Z,5.07
2022-09-23T00:54:18.151Z,4.57
2022-09-23T00:56:45.425Z,5.53
2022-09-23T00:59:13.890Z,5.03
2022-09-23T01:01:42.616Z,4.90
2022-09-23T01:04:10.008Z,4.90
2022-09-23T01:06:37.102Z,4.80
2022-09-23T01:09:04.403Z,5.67
2022-09-23T01:12:11.540Z,5.73
2022-09-23T01:15:10.019Z,5.50
2022-09-23T01:18:19.318Z,5.10
2022-09-23T01:20:59.367Z,6.07
2022-09-23T01:23:54.301Z,5.67
2022-09-23T01:27:07.801Z,5.63
2022-09-23T01:30:16.765Z,5.50
2022-09-23T01:33:45.745Z,5.40
2022-09-23T01:36:23.752Z,6.20
2022-09-23T01:39:10.695Z,6.27
2022-09-23T01:41:47.600Z,5.53
2022-09-23T01:44:47.628Z,7.07
2022-09-23T01:47:26.678Z,6.50
2022-09-23T01:50:01.072Z,6.73
2022-09-23T01:52:43.223Z,6.20
2022-09-23T01:55:20.160Z,6.60
2022-09-23T01:57:54.297Z,6.67
2022-09-23T02:00:23.712Z,6.57
2022-09-23T02:03:00.900Z,5.60
2022-09-23T02:05:39.886Z,6.30
2022-09-23T02:08:17.491Z,6.50
2022-09-23T02:11:07.848Z,5.90
2022-09-23T02:13:44.959Z,5.63
2022-09-23T02:16:43.893Z,6.13
2022-09-23T02:19:32.632Z,5.33
2022-09-23T02:22:29.933Z,5.53
2022-09-23T02:24:58.245Z,6.20
2022-09-23T02:27:47.757Z,6.47
2022-09-23T02:30:23.122Z,6.17
2022-09-23T02:33:23.860Z,6.13
2022-09-23T02:36:01.222Z,6.80
2022-09-23T02:38:42.098Z,6.87
2022-09-23T02:41:34.779Z,6.80
2022-09-23T02:44:14.135Z,6.10
2022-09-23T02:46:43.674Z,6.87
2022-09-23T02:49:32.526Z,7.10
2022-09-23T02:52:04.947Z,6.07
2022-09-23T02:54:36.152Z,7.20
2022-09-23T02:57:07.036Z,7.03
2022-09-23T02:59:35.619Z,6.77
2022-09-23T03:02:42.373Z,6.03
2022-09-23T03:05:30.211Z,6.30
2022-09-23T03:08:28.042Z,6.90
2022-09-23T03:11:11.668Z,6.60
2022-09-23T03:14:17.693Z,7.00
2022-09-23T03:17:05.386Z,7.40
2022-09-23T03:19:48.988Z,7.80
2022-09-23T03:22:27.096Z,6.97
2022-09-23T03:24:54.457Z,6.87
2022-09-23T03:27:27.711Z,6.53
2022-09-23T03:29:56.535Z,7.03
2022-09-23T03:32:28.019Z,5.90
2022-09-23T03:35:01.555Z,6.47
2022-09-23T03:38:17.045Z,6.00
2022-09-23T03:40:47.797Z,7.20
2022-09-23T03:43:15.350Z,7.20
2022-09-23T03:45:42.698Z,6.43
2022-09-23T03:48:10.264Z,6.70
2022-09-23T03:50:37.430Z,7.20
2022-09-23T03:53:04.561Z,7.30
2022-09-23T03:55:32.305Z,8.30
2022-09-23T03:58:00.306Z,5.50
2022-09-23T04:00:27.787Z,7.13
2022-09-23T04:02:54.872Z,7.20
2022-09-23T04:05:21.935Z,6.77
2022-09-23T04:07:49.497Z,6.87
2022-09-23T04:10:16.592Z,7.03
2022-09-23T04:12:43.583Z,7.40
2022-09-23T04:15:11.273Z,8.77
2022-09-23T04:17:38.309Z,7.80
2022-09-23T04:20:06.470Z,7.77
2022-09-23T04:22:34.936Z,8.03
2022-09-23T04:25:02.361Z,7.10
2022-09-23T04:27:31.298Z,7.30
2022-09-23T04:30:01.359Z,6.97
2022-09-23T04:32:28.366Z,7.13
2022-09-23T04:34:55.409Z,8.40
2022-09-23T04:37:22.416Z,8.07
2022-09-23T04:39:49.402Z,7.37
2022-09-23T04:42:16.396Z,7.57
2022-09-23T04:44:43.381Z,7.73
2022-09-23T04:47:10.364Z,8.07
2022-09-23T04:49:38.133Z,8.57
2022-09-23T04:52:05.772Z,10.50
2022-09-23T04:54:33.032Z,8.03
2022-09-23T04:57:00.037Z,9.57
2022-09-23T04:59:27.115Z,8.83
2022-09-23T05:01:55.387Z,8.10
2022-09-23T05:04:22.869Z,9.20
2022-09-23T05:06:49.967Z,9.00
2022-09-23T05:09:18.233Z,8.83
2022-09-23T05:11:45.987Z,9.50
2022-09-23T05:14:13.347Z,8.87
2022-09-23T05:16:40.815Z,8.77
2022-09-23T05:19:08.033Z,9.90
2022-09-23T05:21:35.222Z,10.10
2022-09-23T05:24:02.647Z,8.23
2022-09-23T05:26:32.009Z,9.00
2022-09-23T05:28:59.948Z,8.87
2022-09-23T05:31:29.438Z,8.90
2022-09-23T05:34:02.470Z,8.63
2022-09-23T05:36:36.932Z,7.43
2022-09-23T05:39:06.425Z,8.90
2022-09-23T05:41:34.063Z,8.73
2022-09-23T05:44:01.796Z,9.40
2022-09-23T05:46:30.966Z,8.00
2022-09-23T05:49:03.033Z,8.30
2022-09-23T05:51:32.372Z,7.90
2022-09-23T05:54:02.931Z,9.47
2022-09-23T05:56:31.540Z,7.30
2022-09-23T05:59:00.883Z,8.03
2022-09-23T06:01:35.431Z,7.70
2022-09-23T06:04:06.016Z,7.97
2022-09-23T06:06:37.557Z,7.30
2022-09-23T06:09:06.685Z,6.50
2022-09-23T06:11:35.597Z,7.10
2022-09-23T06:14:03.434Z,6.60
2022-09-23T06:16:34.138Z,6.47
2022-09-23T06:19:06.147Z,7.30
2022-09-23T06:21:37.570Z,7.53
2022-09-23T06:24:06.638Z,8.30
2022-09-23T06:26:35.050Z,7.63
2022-09-23T06:29:04.435Z,7.73
2022-09-23T06:31:33.055Z,7.57
2022-09-23T06:34:10.673Z,7.00
2022-09-23T06:36:43.850Z,7.03
2022-09-23T06:39:12.900Z,7.60
2022-09-23T06:41:39.939Z,7.10
2022-09-23T06:44:13.251Z,6.23
2022-09-23T06:46:40.518Z,5.37
2022-09-23T06:49:07.653Z,7.43
2022-09-23T06:51:34.855Z,5.60
2022-09-23T06:54:01.994Z,6.50
2022-09-23T06:56:31.562Z,6.03
2022-09-23T06:59:01.965Z,6.00
2022-09-23T07:01:29.067Z,6.00
2022-09-23T07:03:56.312Z,4.33
2022-09-23T07:06:23.383Z,5.03
2022-09-23T07:08:51.212Z,4.93
2022-09-23T07:11:22.352Z,5.10
2022-09-23T07:13:49.524Z,4.90
2022-09-23T07:16:16.699Z,4.37
2022-09-23T07:18:45.083Z,4.33
2022-09-23T07:21:18.268Z,4.60
2022-09-23T07:23:51.989Z,4.70
2022-09-23T07:26:21.475Z,3.93
2022-09-23T07:28:54.143Z,4.13
2022-09-23T07:31:33.635Z,4.10
2022-09-23T07:34:05.835Z,3.80
2022-09-23T07:36:33.204Z,4.47
2022-09-23T07:39:02.238Z,3.90
2022-09-23T07:41:32.070Z,4.80
2022-09-23T07:44:00.590Z,4.20
2022-09-23T07:46:31.334Z,3.83
2022-09-23T07:48:59.332Z,4.07
2022-09-23T07:51:35.702Z,4.40
2022-09-23T07:54:07.503Z,3.63
2022-09-23T07:56:35.920Z,3.50
2022-09-23T07:59:04.577Z,4.37
2022-09-23T08:01:44.887Z,3.93
2022-09-23T08:04:19.845Z,4.17
2022-09-23T08:06:51.376Z,3.23
2022-09-23T08:09:23.115Z,3.30
2022-09-23T08:11:51.047Z,4.00
2022-09-23T08:14:18.583Z,4.20
2022-09-23T08:16:47.693Z,4.37
2022-09-23T08:19:16.103Z,3.50
2022-09-23T08:21:44.864Z,4.80
2022-09-23T08:24:18.939Z,4.17
2022-09-23T08:26:47.692Z,4.20
2022-09-23T08:29:17.030Z,3.60
2022-09-23T08:31:44.385Z,3.77
2022-09-23T08:34:11.725Z,3.40
2022-09-23T08:36:38.906Z,3.60
2022-09-23T08:39:06.626Z,3.80
2022-09-23T08:42:16.822Z,3.93
2022-09-23T08:44:57.907Z,4.60
2022-09-23T08:47:39.774Z,3.80
2022-09-23T08:50:20.753Z,4.20
2022-09-23T08:52:57.132Z,3.30
2022-09-23T08:55:38.858Z,3.50
2022-09-23T08:58:35.174Z,4.30
2022-09-23T09:01:26.565Z,4.63
2022-09-23T09:04:00.960Z,3.30
2022-09-23T09:06:52.373Z,3.90
2022-09-23T09:09:26.053Z,3.17
2022-09-23T09:12:11.790Z,3.17
2022-09-23T09:14:59.425Z,3.27
2022-09-23T09:17:39.863Z,3.17
2022-09-23T09:20:23.304Z,2.80
2022-09-23T09:22:55.941Z,3.00
2022-09-23T09:25:50.611Z,2.30
2022-09-23T09:28:31.077Z,2.93
2022-09-23T09:31:03.009Z,2.70
2022-09-23T09:34:27.865Z,2.90
2022-09-23T09:37:08.447Z,2.27
2022-09-23T09:39:36.823Z,2.60
2022-09-23T09:42:06.491Z,2.10
2022-09-23T09:44:54.176Z,2.43
2022-09-23T09:47:47.385Z,2.80
2022-09-23T09:50:45.709Z,3.37
2022-09-23T09:53:28.150Z,3.20
2022-09-23T09:56:04.916Z,3.30
2022-09-23T09:58:54.170Z,2.83
2022-09-23T10:01:25.087Z,3.20
2022-09-23T10:03:59.471Z,2.67
2022-09-23T10:06:32.438Z,2.23
2022-09-23T10:09:21.620Z,2.93
2022-09-23T10:12:13.132Z,3.00
2022-09-23T10:14:40.300Z,2.20
2022-09-23T10:17:15.488Z,1.80
2022-09-23T10:19:49.394Z,2.40
2022-09-23T10:22:26.380Z,2.47
2022-09-23T10:24:55.173Z,1.70
2022-09-23T10:27:35.791Z,2.33
2022-09-23T10:30:23.176Z,1.77
2022-09-23T10:32:55.057Z,1.90
2022-09-23T10:35:24.903Z,2.40
2022-09-23T10:37:57.942Z,1.90
2022-09-23T10:40:51.707Z,2.20
2022-09-23T10:44:05.902Z,1.80
2022-09-23T10:46:47.117Z,2.23
2022-09-23T10:50:08.230Z,2.30
2022-09-23T10:53:05.087Z,1.67
2022-09-23T10:56:13.597Z,2.27
2022-09-23T10:59:33.680Z,1.80
2022-09-23T11:02:13.592Z,1.73
2022-09-23T11:04:59.843Z,1.20
2022-09-23T11:08:00.373Z,1.90
2022-09-23T11:11:34.205Z,1.00
2022-09-23T11:14:07.629Z,1.77
2022-09-23T11:17:07.506Z,1.53
2022-09-23T11:19:49.567Z,1.30
2022-09-23T11:22:53.797Z,1.20
2022-09-23T11:25:38.948Z,1.20
2022-09-23T11:28:44.317Z,1.37
2022-09-23T11:31:24.247Z,1.10
2022-09-23T11:34:22.397Z,1.43
2022-09-23T11:36:58.060Z,1.10
2022-09-23T11:39:36.179Z,1.17
2022-09-23T11:42:09.311Z,1.20
2022-09-23T11:44:43.192Z,1.13
2022-09-23T11:47:30.048Z,1.10
2022-09-23T11:50:17.788Z,1.23
2022-09-23T11:52:58.681Z,1.10
2022-09-23T11:55:32.287Z,1.10
2022-09-23T11:58:04.435Z,1.20
2022-09-23T12:00:40.056Z,1.27
2022-09-23T12:03:34.699Z,1.20
2022-09-23T12:06:18.590Z,1.07
2022-09-23T12:08:45.772Z,1.10
2022-09-23T12:11:27.664Z,0.90
2022-09-23T12:14:15.570Z,1.10
2022-09-23T12:17:29.893Z,1.37
2022-09-23T12:20:30.002Z,0.87
2022-09-23T12:23:07.875Z,1.10
2022-09-23T12:25:54.725Z,1.40
2022-09-23T12:28:33.623Z,1.03
2022-09-23T12:31:03.569Z,1.37
2022-09-23T12:33:33.238Z,1.00
2022-09-23T12:36:07.231Z,1.00
2022-09-23T12:38:42.328Z,1.10
2022-09-23T12:41:25.448Z,1.10
2022-09-23T12:44:13.941Z,1.10
2022-09-23T12:46:45.890Z,1.07
2022-09-23T12:49:36.670Z,1.20
2022-09-23T12:52:24.675Z,0.87
2022-09-23T12:54:57.973Z,0.93
2022-09-23T12:57:34.323Z,1.13
2022-09-23T13:00:13.375Z,1.13
2022-09-23T13:03:12.274Z,1.23
2022-09-23T13:06:16.980Z,0.87
2022-09-23T13:08:45.696Z,1.13
2022-09-23T13:11:31.870Z,1.00
2022-09-23T13:14:04.545Z,1.00
2022-09-23T13:16:51.683Z,1.40
2022-09-23T13:19:27.975Z,0.80
2022-09-23T13:22:08.786Z,1.53
2022-09-23T13:24:45.320Z,1.10
2022-09-23T13:27:23.012Z,1.33
2022-09-23T13:30:07.871Z,0.90
2022-09-23T13:32:45.103Z,1.00
2022-09-23T13:35:52.560Z,1.53
2022-09-23T13:38:32.012Z,1.00
2022-09-23T13:41:15.306Z,0.90
2022-09-23T13:43:48.301Z,1.10
2022-09-23T13:46:30.791Z,0.90
2022-09-23T13:48:58.003Z,0.80
2022-09-23T13:51:27.851Z,1.20
2022-09-23T13:53:57.842Z,1.00
2022-09-23T13:56:29.349Z,0.80
2022-09-23T13:59:23.782Z,1.60
2022-09-23T14:01:51.481Z,1.10
2022-09-23T14:04:26.072Z,0.80
2022-09-23T14:06:54.534Z,0.90
2022-09-23T14:09:27.442Z,1.40
2022-09-23T14:11:57.820Z,1.17
2022-09-23T14:14:27.155Z,0.90
2022-09-23T14:16:56.109Z,1.27
2022-09-23T14:19:25.715Z,1.00
2022-09-23T14:21:55.020Z,1.30
2022-09-23T14:24:36.908Z,1.00
2022-09-23T14:27:15.142Z,2.03
2022-09-23T14:29:45.849Z,0.90
2022-09-23T14:32:21.101Z,0.97
2022-09-23T14:35:00.890Z,1.87
2022-09-23T14:37:59.600Z,1.20
2022-09-23T14:40:32.581Z,1.03
2022-09-23T14:43:19.326Z,1.47
2022-09-23T14:45:51.035Z,1.23
2022-09-23T14:48:25.374Z,1.00
2022-09-23T14:51:01.046Z,1.73
2022-09-23T14:53:46.368Z,1.40
2022-09-23T14:56:25.609Z,1.27
2022-09-23T14:58:58.895Z,1.00
2022-09-23T15:01:34.585Z,0.97
2022-09-23T15:04:21.844Z,2.17
2022-09-23T15:06:54.492Z,1.10
2022-09-23T15:09:42.458Z,1.50
2022-09-23T15:12:15.963Z,1.13
2022-09-23T15:14:54.838Z,1.23
2022-09-23T15:17:30.125Z,13.50
2022-09-23T15:20:31.214Z,6.73
2022-09-23T15:22:58.305Z,6.83
2022-09-23T15:25:35.687Z,1.40
2022-09-23T15:28:11.671Z,1.10
2022-09-23T15:30:39.581Z,2.03
2022-09-23T15:33:07.189Z,1.80
2022-09-23T15:35:34.549Z,1.70
2022-09-23T15:38:02.770Z,1.83
2022-09-23T15:40:34.237Z,2.67
2022-09-23T15:43:21.475Z,2.20
2022-09-23T15:45:58.033Z,2.30
2022-09-23T15:48:32.531Z,2.23
2022-09-23T15:51:06.903Z,1.83
2022-09-23T15:53:34.465Z,1.97
2022-09-23T15:56:02.067Z,2.33
2022-09-23T15:58:29.403Z,2.20
2022-09-23T16:00:57.364Z,2.20
2022-09-23T16:03:28.943Z,2.63
2022-09-23T16:06:00.623Z,2.77
2022-09-23T16:08:29.030Z,2.40
2022-09-23T16:10:56.473Z,3.20
2022-09-23T16:13:23.749Z,4.20
2022-09-23T16:15:50.971Z,3.57
2022-09-23T16:18:18.336Z,5.60
2022-09-23T16:20:46.387Z,3.27
2022-09-23T16:23:35.258Z,4.87
2022-09-23T16:26:17.318Z,2.83
2022-09-23T16:28:46.971Z,3.87
2022-09-23T16:31:18.963Z,3.80
2022-09-23T16:33:48.060Z,3.57
2022-09-23T16:36:25.941Z,4.87
2022-09-23T16:38:56.228Z,4.20
2022-09-23T16:41:37.501Z,5.20
2022-09-23T16:44:08.307Z,5.50
2022-09-23T16:46:35.518Z,7.47
2022-09-23T16:49:03.632Z,4.87
2022-09-23T16:51:38.145Z,4.80
2022-09-23T16:54:13.249Z,5.93
2022-09-23T16:56:44.427Z,5.90
2022-09-23T16:59:16.352Z,6.77
2022-09-23T17:02:02.968Z,5.53
2022-09-23T17:04:30.278Z,6.20
2022-09-23T17:06:57.958Z,5.57
2022-09-23T17:09:30.194Z,5.60
2022-09-23T17:12:15.610Z,5.97
2022-09-23T17:14:43.757Z,7.80
2022-09-23T17:17:10.979Z,7.53
2022-09-23T17:19:41.286Z,7.40
2022-09-23T17:22:08.468Z,6.83
2022-09-23T17:24:35.573Z,5.60
2022-09-23T17:27:03.446Z,5.47
2022-09-23T17:29:30.780Z,5.30
2022-09-23T17:31:58.224Z,6.17
2022-09-23T17:34:25.360Z,7.57
2022-09-23T17:36:52.652Z,8.50
2022-09-23T17:39:19.701Z,11.00
2022-09-23T17:41:46.742Z,8.80
2022-09-23T17:44:16.083Z,9.23
2022-09-23T17:46:43.638Z,8.20
2022-09-23T17:49:11.376Z,8.53
2022-09-23T17:51:39.069Z,9.13
2022-09-23T17:54:06.496Z,8.80
2022-09-23T17:56:33.998Z,7.10
2022-09-23T17:59:02.046Z,7.00
2022-09-23T18:01:30.132Z,7.97
2022-09-23T18:04:00.484Z,7.93
2022-09-23T18:06:35.455Z,8.23
2022-09-23T18:09:05.948Z,6.60
2022-09-23T18:11:36.700Z,6.70
2022-09-23T18:14:13.824Z,6.57
2022-09-23T18:16:43.773Z,6.90
2022-09-23T18:19:14.422Z,7.53
2022-09-23T18:21:45.099Z,7.10
2022-09-23T18:27:00.349Z,22.00
2022-09-23T18:29:28.148Z,14.50
2022-09-23T18:31:55.413Z,13.33
2022-09-23T18:34:23.831Z,12.10
2022-09-23T18:36:51.264Z,11.57
2022-09-23T18:39:18.431Z,12.67
2022-09-23T18:41:45.496Z,12.40
2022-09-23T18:44:12.572Z,13.57
2022-09-23T18:46:39.622Z,16.00
2022-09-23T18:49:45.449Z,13.10
2022-09-23T18:52:12.533Z,9.40
2022-09-23T18:54:43.092Z,9.77
2022-09-23T18:57:14.606Z,10.97
2022-09-23T18:59:41.855Z,12.03
2022-09-23T19:02:09.332Z,11.00
2022-09-23T19:04:36.640Z,12.80
2022-09-23T19:07:05.160Z,12.90
2022-09-23T19:09:32.352Z,14.03
2022-09-23T19:12:03.389Z,13.37
2022-09-23T19:14:32.944Z,12.70
2022-09-23T19:17:00.111Z,18.83
2022-09-23T19:19:28.910Z,14.50
2022-09-23T19:21:55.999Z,13.50
2022-09-23T19:24:23.333Z,12.07
2022-09-23T19:26:50.514Z,14.83
2022-09-23T19:29:22.027Z,15.23
2022-09-23T19:31:49.891Z,13.17
2022-09-23T19:34:22.788Z,13.70
2022-09-23T19:36:49.846Z,12.77
2022-09-23T19:39:20.984Z,23.27
2022-09-23T19:41:49.422Z,15.70
2022-09-23T19:44:17.133Z,12.10
2022-09-23T19:46:45.694Z,12.43
2022-09-23T19:49:13.348Z,12.00
2022-09-23T19:51:40.940Z,13.77
2022-09-23T19:54:09.277Z,12.20
2022-09-23T19:56:36.601Z,12.40
2022-09-23T19:59:06.798Z,12.37
2022-09-23T20:01:34.449Z,14.20
2022-09-23T20:04:02.187Z,11.63
2022-09-23T20:06:31.413Z,12.67
2022-09-23T20:09:00.859Z,13.40
2022-09-23T20:11:29.028Z,11.17
2022-09-23T20:14:04.098Z,10.30
2022-09-23T20:16:35.337Z,11.47
2022-09-23T20:19:04.551Z,10.87
2022-09-23T20:21:33.591Z,8.40
2022-09-23T20:24:04.390Z,10.80
2022-09-23T20:26:50.414Z,9.80
2022-09-23T20:29:17.660Z,9.03
2022-09-23T20:31:44.859Z,9.57
2022-09-23T20:34:12.347Z,9.53
2022-09-23T20:36:41.738Z,10.60
2022-09-23T20:39:10.264Z,10.17
2022-09-23T20:41:39.342Z,9.03
2022-09-23T20:44:12.534Z,9.17
2022-09-23T20:46:46.938Z,10.20
2022-09-23T20:49:16.907Z,8.80
2022-09-23T20:51:44.005Z,8.20
2022-09-23T20:54:12.218Z,7.90
2022-09-23T20:56:39.491Z,7.57
2022-09-23T20:59:06.629Z,8.77
2022-09-23T21:01:36.543Z,8.53
2022-09-23T21:04:05.810Z,8.87
2022-09-23T21:06:36.155Z,9.80
2022-09-23T21:09:04.606Z,10.07
2022-09-23T21:11:32.244Z,11.13
2022-09-23T21:14:01.186Z,11.80
2022-09-23T21:16:29.825Z,10.70
2022-09-23T21:18:58.074Z,9.40
2022-09-23T21:21:25.531Z,11.30
2022-09-23T21:23:52.911Z,10.03
2022-09-23T21:26:23.358Z,9.57
2022-09-23T21:28:57.706Z,9.50
2022-09-23T21:31:27.488Z,9.83
2022-09-23T21:34:03.189Z,9.10
2022-09-23T21:36:33.350Z,8.50
2022-09-23T21:39:01.841Z,9.33
2022-09-23T21:41:29.038Z,8.40
2022-09-23T21:43:57.883Z,8.60
2022-09-23T21:46:26.167Z,9.23
2022-09-23T21:48:56.604Z,8.47
2022-09-23T21:51:37.770Z,9.90
2022-09-23T21:54:07.256Z,8.50
2022-09-23T21:56:36.471Z,8.53
2022-09-23T21:59:04.289Z,6.97
2022-09-23T22:01:37.456Z,7.07
2022-09-23T22:04:09.338Z,8.20
2022-09-23T22:06:38.498Z,7.43
2022-09-23T22:09:11.423Z,8.40
2022-09-23T22:11:58.362Z,8.10
2022-09-23T22:14:26.498Z,7.47
2022-09-23T22:16:59.173Z,9.37
2022-09-23T22:19:32.882Z,10.20
2022-09-23T22:22:00.147Z,8.50
2022-09-23T22:24:27.725Z,8.73
2022-09-23T22:26:54.789Z,7.90
2022-09-23T22:29:40.216Z,9.50
2022-09-23T22:32:30.238Z,8.00
2022-09-23T22:34:57.734Z,8.70
2022-09-23T22:37:28.276Z,9.03
2022-09-23T22:39:56.023Z,9.13
2022-09-23T22:42:23.121Z,8.20
2022-09-23T22:44:51.065Z,9.27
2022-09-23T22:47:19.937Z,8.57
2022-09-23T22:49:47.950Z,9.40
2022-09-23T22:52:16.166Z,8.20
2022-09-23T22:54:43.389Z,7.40
2022-09-23T22:57:10.725Z,9.40
2022-09-23T22:59:37.950Z,7.63
2022-09-23T23:02:07.777Z,6.77
2022-09-23T23:04:36.560Z,7.90
2022-09-23T23:07:04.322Z,7.27
2022-09-23T23:09:31.350Z,6.90
2022-09-23T23:11:58.421Z,6.83
2022-09-23T23:14:26.413Z,7.57
2022-09-23T23:16:53.599Z,7.57
2022-09-23T23:19:20.756Z,7.23
2022-09-23T23:21:50.500Z,7.10
2022-09-23T23:24:23.578Z,7.23
2022-09-23T23:26:52.250Z,7.40
2022-09-23T23:29:21.728Z,7.57
2022-09-23T23:31:49.268Z,6.90
2022-09-23T23:34:19.593Z,6.40
2022-09-23T23:36:48.005Z,7.20
2022-09-23T23:39:15.258Z,7.47
2022-09-23T23:41:42.710Z,7.50
2022-09-23T23:44:12.136Z,6.70
2022-09-23T23:46:39.227Z,6.40
2022-09-23T23:49:06.830Z,6.63
2022-09-23T23:51:34.057Z,7.00
2022-09-23T23:54:01.421Z,6.23
2022-09-23T23:56:30.958Z,6.73
2022-09-23T23:59:01.191Z,6.30
